sensor_id;sensor_type;location;lat;lon;timestamp;P1;durP1;ratioP1;P2;durP2;ratioP2
74632;SDS011;63139;52.018;8.552;2023-12-22T00:00:51;18.65;;;2.65;;
74632;SDS011;63139;52.018;8.552;2023-12-22T00:03:19;16.90;;;2.83;;
74632;SDS011;63139;52.018;8.552;2023-12-22T00:05:47;15.50;;;2.67;;
74632;SDS011;63139;52.018;8.552;2023-12-22T00:08:15;18.58;;;2.40;;
74632;SDS011;63139;52.018;8.552;2023-12-22T00:10:43;20.98;;;3.08;;
74632;SDS011;63139;52.018;8.552;2023-12-22T00:13:12;17.08;;;3.13;;
74632;SDS011;63139;52.018;8.552;2023-12-22T00:15:40;24.98;;;3.38;;
74632;SDS011;63139;52.018;8.552;2023-12-22T00:18:08;15.18;;;2.70;;
74632;SDS011;63139;52.018;8.552;2023-12-22T00:20:36;17.45;;;3.10;;
74632;SDS011;63139;52.018;8.552;2023-12-22T00:23:04;15.23;;;2.33;;
74632;SDS011;63139;52.018;8.552;2023-12-22T00:25:32;21.48;;;2.67;;
74632;SDS011;63139;52.018;8.552;2023-12-22T00:28:00;14.30;;;2.72;;
74632;SDS011;63139;52.018;8.552;2023-12-22T00:30:29;14.15;;;3.00;;
74632;SDS011;63139;52.018;8.552;2023-12-22T00:32:57;22.20;;;3.05;;
74632;SDS011;63139;52.018;8.552;2023-12-22T00:35:25;18.55;;;2.92;;
74632;SDS011;63139;52.018;8.552;2023-12-22T00:37:53;20.58;;;3.20;;
74632;SDS011;63139;52.018;8.552;2023-12-22T00:40:21;17.88;;;2.92;;
74632;SDS011;63139;52.018;8.552;2023-12-22T00:42:49;23.42;;;3.38;;
74632;SDS011;63139;52.018;8.552;2023-12-22T00:45:17;17.50;;;2.83;;
74632;SDS011;63139;52.018;8.552;2023-12-22T00:47:46;19.42;;;3.30;;
74632;SDS011;63139;52.018;8.552;2023-12-22T00:50:15;25.42;;;3.50;;
74632;SDS011;63139;52.018;8.552;2023-12-22T00:52:43;23.38;;;3.30;;
74632;SDS011;63139;52.018;8.552;2023-12-22T00:55:10;24.80;;;3.78;;
74632;SDS011;63139;52.018;8.552;2023-12-22T00:57:38;21.08;;;3.60;;
74632;SDS011;63139;52.018;8.552;2023-12-22T01:00:07;28.30;;;3.50;;
74632;SDS011;63139;52.018;8.552;2023-12-22T01:02:38;22.00;;;3.15;;
74632;SDS011;63139;52.018;8.552;2023-12-22T01:05:08;17.27;;;3.20;;
74632;SDS011;63139;52.018;8.552;2023-12-22T01:07:36;22.17;;;3.10;;
74632;SDS011;63139;52.018;8.552;2023-12-22T01:10:05;21.75;;;3.05;;
74632;SDS011;63139;52.018;8.552;2023-12-22T01:12:33;15.82;;;3.40;;
74632;SDS011;63139;52.018;8.552;2023-12-22T01:15:01;18.08;;;2.90;;
74632;SDS011;63139;52.018;8.552;2023-12-22T01:17:29;24.92;;;3.22;;
74632;SDS011;63139;52.018;8.552;2023-12-22T01:19:57;21.20;;;2.63;;
74632;SDS011;63139;52.018;8.552;2023-12-22T01:22:27;17.15;;;2.67;;
74632;SDS011;63139;52.018;8.552;2023-12-22T01:24:54;20.05;;;3.25;;
74632;SDS011;63139;52.018;8.552;2023-12-22T01:27:22;16.13;;;2.90;;
74632;SDS011;63139;52.018;8.552;2023-12-22T01:29:50;18.95;;;3.33;;
74632;SDS011;63139;52.018;8.552;2023-12-22T01:32:18;20.08;;;2.70;;
74632;SDS011;63139;52.018;8.552;2023-12-22T01:34:46;21.58;;;2.70;;
74632;SDS011;63139;52.018;8.552;2023-12-22T01:37:14;17.00;;;2.90;;
74632;SDS011;63139;52.018;8.552;2023-12-22T01:39:43;12.30;;;2.20;;
74632;SDS011;63139;52.018;8.552;2023-12-22T01:42:11;11.43;;;2.20;;
74632;SDS011;63139;52.018;8.552;2023-12-22T01:44:38;16.38;;;2.30;;
74632;SDS011;63139;52.018;8.552;2023-12-22T01:47:06;14.77;;;2.22;;
74632;SDS011;63139;52.018;8.552;2023-12-22T01:49:34;12.20;;;2.40;;
74632;SDS011;63139;52.018;8.552;2023-12-22T01:52:02;11.20;;;2.00;;
74632;SDS011;63139;52.018;8.552;2023-12-22T01:54:30;20.20;;;2.55;;
74632;SDS011;63139;52.018;8.552;2023-12-22T01:56:59;23.02;;;3.03;;
74632;SDS011;63139;52.018;8.552;2023-12-22T01:59:28;18.63;;;2.67;;
74632;SDS011;63139;52.018;8.552;2023-12-22T02:02:00;24.90;;;2.58;;
74632;SDS011;63139;52.018;8.552;2023-12-22T02:04:30;20.65;;;2.50;;
74632;SDS011;63139;52.018;8.552;2023-12-22T02:06:58;19.27;;;2.75;;
74632;SDS011;63139;52.018;8.552;2023-12-22T02:09:29;19.17;;;2.83;;
74632;SDS011;63139;52.018;8.552;2023-12-22T02:11:57;18.42;;;2.97;;
74632;SDS011;63139;52.018;8.552;2023-12-22T02:14:26;17.92;;;2.55;;
74632;SDS011;63139;52.018;8.552;2023-12-22T02:16:55;20.67;;;2.63;;
74632;SDS011;63139;52.018;8.552;2023-12-22T02:19:39;15.75;;;2.53;;
74632;SDS011;63139;52.018;8.552;2023-12-22T02:22:10;19.65;;;2.63;;
74632;SDS011;63139;52.018;8.552;2023-12-22T02:24:40;17.80;;;2.85;;
74632;SDS011;63139;52.018;8.552;2023-12-22T02:27:14;17.60;;;2.38;;
74632;SDS011;63139;52.018;8.552;2023-12-22T02:29:51;18.27;;;2.75;;
74632;SDS011;63139;52.018;8.552;2023-12-22T02:32:27;14.82;;;2.33;;
74632;SDS011;63139;52.018;8.552;2023-12-22T02:34:57;19.20;;;2.72;;
74632;SDS011;63139;52.018;8.552;2023-12-22T02:37:28;9.13;;;2.35;;
74632;SDS011;63139;52.018;8.552;2023-12-22T02:39:59;16.75;;;2.40;;
74632;SDS011;63139;52.018;8.552;2023-12-22T02:42:28;19.92;;;2.47;;
74632;SDS011;63139;52.018;8.552;2023-12-22T02:44:57;24.95;;;2.97;;
74632;SDS011;63139;52.018;8.552;2023-12-22T02:47:25;16.42;;;2.78;;
74632;SDS011;63139;52.018;8.552;2023-12-22T02:49:54;13.82;;;2.15;;
74632;SDS011;63139;52.018;8.552;2023-12-22T02:52:22;11.43;;;2.35;;
74632;SDS011;63139;52.018;8.552;2023-12-22T02:54:50;14.52;;;2.25;;
74632;SDS011;63139;52.018;8.552;2023-12-22T02:57:19;19.90;;;2.55;;
74632;SDS011;63139;52.018;8.552;2023-12-22T02:59:47;12.98;;;2.10;;
74632;SDS011;63139;52.018;8.552;2023-12-22T03:02:15;13.98;;;2.15;;
74632;SDS011;63139;52.018;8.552;2023-12-22T03:04:43;17.33;;;2.80;;
74632;SDS011;63139;52.018;8.552;2023-12-22T03:07:12;19.65;;;2.67;;
74632;SDS011;63139;52.018;8.552;2023-12-22T03:09:40;19.20;;;3.15;;
74632;SDS011;63139;52.018;8.552;2023-12-22T03:12:09;13.60;;;2.25;;
74632;SDS011;63139;52.018;8.552;2023-12-22T03:14:39;22.63;;;3.45;;
74632;SDS011;63139;52.018;8.552;2023-12-22T03:17:07;15.55;;;2.28;;
74632;SDS011;63139;52.018;8.552;2023-12-22T03:19:36;11.98;;;2.25;;
74632;SDS011;63139;52.018;8.552;2023-12-22T03:22:03;24.10;;;3.58;;
74632;SDS011;63139;52.018;8.552;2023-12-22T03:24:31;21.42;;;2.85;;
74632;SDS011;63139;52.018;8.552;2023-12-22T03:26:59;17.75;;;2.70;;
74632;SDS011;63139;52.018;8.552;2023-12-22T03:29:27;17.70;;;2.63;;
74632;SDS011;63139;52.018;8.552;2023-12-22T03:31:56;15.40;;;2.40;;
74632;SDS011;63139;52.018;8.552;2023-12-22T03:34:24;14.35;;;2.55;;
74632;SDS011;63139;52.018;8.552;2023-12-22T03:36:52;15.70;;;2.42;;
74632;SDS011;63139;52.018;8.552;2023-12-22T03:39:20;17.67;;;2.55;;
74632;SDS011;63139;52.018;8.552;2023-12-22T03:41:48;16.83;;;2.63;;
74632;SDS011;63139;52.018;8.552;2023-12-22T03:44:15;12.52;;;2.53;;
74632;SDS011;63139;52.018;8.552;2023-12-22T03:46:44;17.85;;;2.30;;
74632;SDS011;63139;52.018;8.552;2023-12-22T03:49:13;22.45;;;2.90;;
74632;SDS011;63139;52.018;8.552;2023-12-22T03:51:41;20.67;;;2.55;;
74632;SDS011;63139;52.018;8.552;2023-12-22T03:54:09;18.58;;;2.47;;
74632;SDS011;63139;52.018;8.552;2023-12-22T03:56:37;19.98;;;3.08;;
74632;SDS011;63139;52.018;8.552;2023-12-22T03:59:04;13.85;;;2.05;;
74632;SDS011;63139;52.018;8.552;2023-12-22T04:01:32;15.32;;;1.95;;
74632;SDS011;63139;52.018;8.552;2023-12-22T04:04:00;13.45;;;2.15;;
74632;SDS011;63139;52.018;8.552;2023-12-22T04:06:29;11.02;;;2.22;;
74632;SDS011;63139;52.018;8.552;2023-12-22T04:08:57;15.20;;;1.98;;
74632;SDS011;63139;52.018;8.552;2023-12-22T04:11:25;12.52;;;2.67;;
74632;SDS011;63139;52.018;8.552;2023-12-22T04:13:52;9.13;;;1.80;;
74632;SDS011;63139;52.018;8.552;2023-12-22T04:16:20;18.35;;;2.10;;
74632;SDS011;63139;52.018;8.552;2023-12-22T04:18:48;14.52;;;2.47;;
74632;SDS011;63139;52.018;8.552;2023-12-22T04:21:16;15.57;;;2.45;;
74632;SDS011;63139;52.018;8.552;2023-12-22T04:23:45;14.13;;;1.95;;
74632;SDS011;63139;52.018;8.552;2023-12-22T04:26:13;11.73;;;2.30;;
74632;SDS011;63139;52.018;8.552;2023-12-22T04:28:41;13.23;;;2.03;;
74632;SDS011;63139;52.018;8.552;2023-12-22T04:31:11;12.00;;;2.08;;
74632;SDS011;63139;52.018;8.552;2023-12-22T04:33:39;10.80;;;1.83;;
74632;SDS011;63139;52.018;8.552;2023-12-22T04:36:07;10.60;;;1.98;;
74632;SDS011;63139;52.018;8.552;2023-12-22T04:38:35;13.20;;;2.20;;
74632;SDS011;63139;52.018;8.552;2023-12-22T04:41:04;18.00;;;2.47;;
74632;SDS011;63139;52.018;8.552;2023-12-22T04:43:32;9.65;;;1.95;;
74632;SDS011;63139;52.018;8.552;2023-12-22T04:45:59;10.50;;;1.80;;
74632;SDS011;63139;52.018;8.552;2023-12-22T04:48:27;12.43;;;2.25;;
74632;SDS011;63139;52.018;8.552;2023-12-22T04:50:55;11.93;;;1.92;;
74632;SDS011;63139;52.018;8.552;2023-12-22T04:53:23;15.15;;;2.25;;
74632;SDS011;63139;52.018;8.552;2023-12-22T04:55:51;7.78;;;1.50;;
74632;SDS011;63139;52.018;8.552;2023-12-22T04:58:20;10.73;;;1.70;;
74632;SDS011;63139;52.018;8.552;2023-12-22T05:00:48;7.30;;;1.40;;
74632;SDS011;63139;52.018;8.552;2023-12-22T05:03:16;6.05;;;1.45;;
74632;SDS011;63139;52.018;8.552;2023-12-22T05:05:44;8.55;;;1.40;;
74632;SDS011;63139;52.018;8.552;2023-12-22T05:08:12;5.50;;;1.00;;
74632;SDS011;63139;52.018;8.552;2023-12-22T05:10:41;7.35;;;1.48;;
74632;SDS011;63139;52.018;8.552;2023-12-22T05:13:09;11.02;;;1.27;;
74632;SDS011;63139;52.018;8.552;2023-12-22T05:15:38;6.20;;;1.13;;
74632;SDS011;63139;52.018;8.552;2023-12-22T05:18:07;5.93;;;1.00;;
74632;SDS011;63139;52.018;8.552;2023-12-22T05:20:36;6.43;;;1.20;;
74632;SDS011;63139;52.018;8.552;2023-12-22T05:23:04;8.05;;;1.10;;
74632;SDS011;63139;52.018;8.552;2023-12-22T05:25:31;6.35;;;1.40;;
74632;SDS011;63139;52.018;8.552;2023-12-22T05:27:59;6.47;;;1.02;;
74632;SDS011;63139;52.018;8.552;2023-12-22T05:30:27;5.63;;;0.98;;
74632;SDS011;63139;52.018;8.552;2023-12-22T05:32:56;5.32;;;1.13;;
74632;SDS011;63139;52.018;8.552;2023-12-22T05:35:24;7.65;;;1.38;;
74632;SDS011;63139;52.018;8.552;2023-12-22T05:37:52;6.68;;;1.42;;
74632;SDS011;63139;52.018;8.552;2023-12-22T05:40:20;3.03;;;0.80;;
74632;SDS011;63139;52.018;8.552;2023-12-22T05:42:48;8.38;;;1.45;;
74632;SDS011;63139;52.018;8.552;2023-12-22T05:45:16;4.63;;;1.02;;
74632;SDS011;63139;52.018;8.552;2023-12-22T05:47:44;4.15;;;1.30;;
74632;SDS011;63139;52.018;8.552;2023-12-22T05:50:14;8.07;;;1.42;;
74632;SDS011;63139;52.018;8.552;2023-12-22T05:52:43;7.00;;;1.00;;
74632;SDS011;63139;52.018;8.552;2023-12-22T05:55:11;7.80;;;1.33;;
74632;SDS011;63139;52.018;8.552;2023-12-22T05:57:39;7.93;;;1.58;;
74632;SDS011;63139;52.018;8.552;2023-12-22T06:00:07;12.02;;;1.52;;
74632;SDS011;63139;52.018;8.552;2023-12-22T06:02:37;7.75;;;1.42;;
74632;SDS011;63139;52.018;8.552;2023-12-22T06:05:05;12.55;;;1.45;;
74632;SDS011;63139;52.018;8.552;2023-12-22T06:07:35;6.93;;;1.38;;
74632;SDS011;63139;52.018;8.552;2023-12-22T06:10:04;6.53;;;1.50;;
74632;SDS011;63139;52.018;8.552;2023-12-22T06:12:33;7.97;;;1.35;;
74632;SDS011;63139;52.018;8.552;2023-12-22T06:15:01;10.48;;;1.02;;
74632;SDS011;63139;52.018;8.552;2023-12-22T06:17:29;8.40;;;1.52;;
74632;SDS011;63139;52.018;8.552;2023-12-22T06:19:56;9.18;;;1.60;;
74632;SDS011;63139;52.018;8.552;2023-12-22T06:22:24;6.60;;;1.17;;
74632;SDS011;63139;52.018;8.552;2023-12-22T06:24:54;10.55;;;2.17;;
74632;SDS011;63139;52.018;8.552;2023-12-22T06:27:22;13.48;;;1.75;;
74632;SDS011;63139;52.018;8.552;2023-12-22T06:29:49;11.57;;;1.73;;
74632;SDS011;63139;52.018;8.552;2023-12-22T06:32:17;11.00;;;1.70;;
74632;SDS011;63139;52.018;8.552;2023-12-22T06:34:45;13.10;;;1.65;;
74632;SDS011;63139;52.018;8.552;2023-12-22T06:37:13;13.10;;;1.67;;
74632;SDS011;63139;52.018;8.552;2023-12-22T06:39:41;15.98;;;2.65;;
74632;SDS011;63139;52.018;8.552;2023-12-22T06:42:10;14.80;;;2.20;;
74632;SDS011;63139;52.018;8.552;2023-12-22T06:44:41;17.83;;;2.60;;
74632;SDS011;63139;52.018;8.552;2023-12-22T06:47:09;14.68;;;2.08;;
74632;SDS011;63139;52.018;8.552;2023-12-22T06:49:38;11.90;;;2.10;;
74632;SDS011;63139;52.018;8.552;2023-12-22T06:52:06;16.75;;;2.50;;
74632;SDS011;63139;52.018;8.552;2023-12-22T06:54:34;10.15;;;2.05;;
74632;SDS011;63139;52.018;8.552;2023-12-22T06:57:02;13.23;;;1.88;;
74632;SDS011;63139;52.018;8.552;2023-12-22T06:59:31;12.50;;;2.67;;
74632;SDS011;63139;52.018;8.552;2023-12-22T07:02:00;11.82;;;2.67;;
74632;SDS011;63139;52.018;8.552;2023-12-22T07:05:00;15.10;;;2.00;;
74632;SDS011;63139;52.018;8.552;2023-12-22T07:07:46;13.30;;;2.28;;
74632;SDS011;63139;52.018;8.552;2023-12-22T07:10:14;14.90;;;2.20;;
74632;SDS011;63139;52.018;8.552;2023-12-22T07:12:42;10.05;;;2.15;;
74632;SDS011;63139;52.018;8.552;2023-12-22T07:15:11;11.88;;;2.22;;
74632;SDS011;63139;52.018;8.552;2023-12-22T07:17:39;18.35;;;2.92;;
74632;SDS011;63139;52.018;8.552;2023-12-22T07:20:09;9.93;;;1.70;;
74632;SDS011;63139;52.018;8.552;2023-12-22T07:22:37;14.65;;;2.00;;
74632;SDS011;63139;52.018;8.552;2023-12-22T07:25:06;16.55;;;2.50;;
74632;SDS011;63139;52.018;8.552;2023-12-22T07:27:34;12.98;;;2.25;;
74632;SDS011;63139;52.018;8.552;2023-12-22T07:30:03;14.23;;;2.28;;
74632;SDS011;63139;52.018;8.552;2023-12-22T07:32:34;15.23;;;2.10;;
74632;SDS011;63139;52.018;8.552;2023-12-22T07:35:02;16.40;;;2.20;;
74632;SDS011;63139;52.018;8.552;2023-12-22T07:37:30;16.02;;;2.75;;
74632;SDS011;63139;52.018;8.552;2023-12-22T07:39:58;14.38;;;2.20;;
74632;SDS011;63139;52.018;8.552;2023-12-22T07:42:26;15.13;;;2.60;;
74632;SDS011;63139;52.018;8.552;2023-12-22T07:44:54;15.85;;;2.38;;
74632;SDS011;63139;52.018;8.552;2023-12-22T07:47:22;15.90;;;2.25;;
74632;SDS011;63139;52.018;8.552;2023-12-22T07:49:51;14.07;;;2.40;;
74632;SDS011;63139;52.018;8.552;2023-12-22T07:52:19;14.23;;;2.17;;
74632;SDS011;63139;52.018;8.552;2023-12-22T07:54:47;10.45;;;2.00;;
74632;SDS011;63139;52.018;8.552;2023-12-22T07:57:15;12.90;;;1.80;;
74632;SDS011;63139;52.018;8.552;2023-12-22T07:59:43;12.43;;;2.50;;
74632;SDS011;63139;52.018;8.552;2023-12-22T08:02:11;11.10;;;1.90;;
74632;SDS011;63139;52.018;8.552;2023-12-22T08:04:39;16.00;;;2.00;;
74632;SDS011;63139;52.018;8.552;2023-12-22T08:07:09;21.92;;;2.22;;
74632;SDS011;63139;52.018;8.552;2023-12-22T08:09:37;13.23;;;2.15;;
74632;SDS011;63139;52.018;8.552;2023-12-22T08:12:05;15.07;;;2.55;;
74632;SDS011;63139;52.018;8.552;2023-12-22T08:14:34;12.90;;;2.15;;
74632;SDS011;63139;52.018;8.552;2023-12-22T08:17:02;15.38;;;2.28;;
74632;SDS011;63139;52.018;8.552;2023-12-22T08:19:30;15.48;;;2.17;;
74632;SDS011;63139;52.018;8.552;2023-12-22T08:21:58;22.92;;;2.55;;
74632;SDS011;63139;52.018;8.552;2023-12-22T08:24:32;16.75;;;2.05;;
74632;SDS011;63139;52.018;8.552;2023-12-22T08:27:00;20.08;;;2.15;;
74632;SDS011;63139;52.018;8.552;2023-12-22T08:29:28;11.70;;;2.33;;
74632;SDS011;63139;52.018;8.552;2023-12-22T08:31:56;11.27;;;1.92;;
74632;SDS011;63139;52.018;8.552;2023-12-22T08:34:24;14.73;;;2.22;;
74632;SDS011;63139;52.018;8.552;2023-12-22T08:36:51;17.52;;;2.22;;
74632;SDS011;63139;52.018;8.552;2023-12-22T08:39:20;17.92;;;2.33;;
74632;SDS011;63139;52.018;8.552;2023-12-22T08:41:49;15.73;;;2.38;;
74632;SDS011;63139;52.018;8.552;2023-12-22T08:44:17;16.25;;;2.63;;
74632;SDS011;63139;52.018;8.552;2023-12-22T08:46:45;18.40;;;2.95;;
74632;SDS011;63139;52.018;8.552;2023-12-22T08:49:13;17.60;;;2.47;;
74632;SDS011;63139;52.018;8.552;2023-12-22T08:51:41;16.13;;;2.40;;
74632;SDS011;63139;52.018;8.552;2023-12-22T08:54:09;16.85;;;2.75;;
74632;SDS011;63139;52.018;8.552;2023-12-22T08:56:37;10.70;;;1.70;;
74632;SDS011;63139;52.018;8.552;2023-12-22T08:59:06;14.18;;;2.35;;
74632;SDS011;63139;52.018;8.552;2023-12-22T09:01:35;10.32;;;1.88;;
74632;SDS011;63139;52.018;8.552;2023-12-22T09:04:03;18.73;;;2.88;;
74632;SDS011;63139;52.018;8.552;2023-12-22T09:06:33;13.98;;;2.60;;
74632;SDS011;63139;52.018;8.552;2023-12-22T09:09:01;8.68;;;2.03;;
74632;SDS011;63139;52.018;8.552;2023-12-22T09:11:30;14.90;;;2.45;;
74632;SDS011;63139;52.018;8.552;2023-12-22T09:13:58;8.38;;;2.05;;
74632;SDS011;63139;52.018;8.552;2023-12-22T09:16:27;11.52;;;2.08;;
74632;SDS011;63139;52.018;8.552;2023-12-22T09:18:55;15.48;;;2.55;;
74632;SDS011;63139;52.018;8.552;2023-12-22T09:21:23;8.88;;;2.17;;
74632;SDS011;63139;52.018;8.552;2023-12-22T09:23:51;11.18;;;2.17;;
74632;SDS011;63139;52.018;8.552;2023-12-22T09:26:19;10.35;;;1.70;;
74632;SDS011;63139;52.018;8.552;2023-12-22T09:28:47;10.77;;;1.38;;
74632;SDS011;63139;52.018;8.552;2023-12-22T09:31:15;11.25;;;1.92;;
74632;SDS011;63139;52.018;8.552;2023-12-22T09:33:44;7.40;;;1.60;;
74632;SDS011;63139;52.018;8.552;2023-12-22T09:36:12;12.23;;;1.83;;
74632;SDS011;63139;52.018;8.552;2023-12-22T09:38:40;8.20;;;1.58;;
74632;SDS011;63139;52.018;8.552;2023-12-22T09:41:10;5.80;;;1.55;;
74632;SDS011;63139;52.018;8.552;2023-12-22T09:43:38;10.88;;;1.67;;
74632;SDS011;63139;52.018;8.552;2023-12-22T09:46:07;9.82;;;1.80;;
74632;SDS011;63139;52.018;8.552;2023-12-22T09:48:36;9.95;;;1.80;;
74632;SDS011;63139;52.018;8.552;2023-12-22T09:51:08;9.50;;;1.60;;
74632;SDS011;63139;52.018;8.552;2023-12-22T09:53:38;8.10;;;1.45;;
74632;SDS011;63139;52.018;8.552;2023-12-22T09:56:07;6.95;;;1.40;;
74632;SDS011;63139;52.018;8.552;2023-12-22T09:58:36;8.30;;;1.45;;
74632;SDS011;63139;52.018;8.552;2023-12-22T10:01:05;7.28;;;1.73;;
74632;SDS011;63139;52.018;8.552;2023-12-22T10:03:33;10.80;;;2.10;;
74632;SDS011;63139;52.018;8.552;2023-12-22T10:06:02;6.70;;;1.50;;
74632;SDS011;63139;52.018;8.552;2023-12-22T10:08:32;4.90;;;1.15;;
74632;SDS011;63139;52.018;8.552;2023-12-22T10:11:00;8.48;;;1.25;;
74632;SDS011;63139;52.018;8.552;2023-12-22T10:13:31;6.43;;;1.42;;
74632;SDS011;63139;52.018;8.552;2023-12-22T10:16:05;8.27;;;1.70;;
74632;SDS011;63139;52.018;8.552;2023-12-22T10:18:34;5.53;;;1.30;;
74632;SDS011;63139;52.018;8.552;2023-12-22T10:21:02;3.90;;;1.10;;
74632;SDS011;63139;52.018;8.552;2023-12-22T10:23:32;7.47;;;1.50;;
74632;SDS011;63139;52.018;8.552;2023-12-22T10:25:59;7.57;;;1.40;;
74632;SDS011;63139;52.018;8.552;2023-12-22T10:28:27;6.40;;;1.45;;
74632;SDS011;63139;52.018;8.552;2023-12-22T10:30:56;7.35;;;1.58;;
74632;SDS011;63139;52.018;8.552;2023-12-22T10:33:30;7.03;;;1.75;;
74632;SDS011;63139;52.018;8.552;2023-12-22T10:35:58;8.38;;;1.50;;
74632;SDS011;63139;52.018;8.552;2023-12-22T10:38:27;5.80;;;1.48;;
74632;SDS011;63139;52.018;8.552;2023-12-22T10:41:01;8.05;;;2.05;;
74632;SDS011;63139;52.018;8.552;2023-12-22T10:43:30;6.57;;;1.60;;
74632;SDS011;63139;52.018;8.552;2023-12-22T10:45:58;9.15;;;1.42;;
74632;SDS011;63139;52.018;8.552;2023-12-22T10:48:26;7.00;;;1.10;;
74632;SDS011;63139;52.018;8.552;2023-12-22T10:50:54;7.03;;;1.23;;
74632;SDS011;63139;52.018;8.552;2023-12-22T10:53:21;5.00;;;1.23;;
74632;SDS011;63139;52.018;8.552;2023-12-22T10:55:52;3.20;;;1.10;;
74632;SDS011;63139;52.018;8.552;2023-12-22T10:58:20;5.25;;;1.00;;
74632;SDS011;63139;52.018;8.552;2023-12-22T11:00:49;6.57;;;1.25;;
74632;SDS011;63139;52.018;8.552;2023-12-22T11:03:19;7.80;;;1.40;;
74632;SDS011;63139;52.018;8.552;2023-12-22T11:05:51;6.47;;;1.42;;
74632;SDS011;63139;52.018;8.552;2023-12-22T11:08:22;4.07;;;1.20;;
74632;SDS011;63139;52.018;8.552;2023-12-22T11:10:56;5.80;;;1.40;;
74632;SDS011;63139;52.018;8.552;2023-12-22T11:13:26;6.68;;;1.23;;
74632;SDS011;63139;52.018;8.552;2023-12-22T11:15:57;5.38;;;1.52;;
74632;SDS011;63139;52.018;8.552;2023-12-22T11:18:25;10.00;;;1.67;;
74632;SDS011;63139;52.018;8.552;2023-12-22T11:20:54;6.20;;;1.10;;
74632;SDS011;63139;52.018;8.552;2023-12-22T11:23:24;6.35;;;1.30;;
74632;SDS011;63139;52.018;8.552;2023-12-22T11:25:53;5.53;;;1.30;;
74632;SDS011;63139;52.018;8.552;2023-12-22T11:28:22;6.55;;;1.17;;
74632;SDS011;63139;52.018;8.552;2023-12-22T11:30:51;3.70;;;1.10;;
74632;SDS011;63139;52.018;8.552;2023-12-22T11:33:23;7.55;;;1.17;;
74632;SDS011;63139;52.018;8.552;2023-12-22T11:35:54;8.02;;;1.40;;
74632;SDS011;63139;52.018;8.552;2023-12-22T11:38:23;3.42;;;1.10;;
74632;SDS011;63139;52.018;8.552;2023-12-22T11:40:51;6.13;;;1.38;;
74632;SDS011;63139;52.018;8.552;2023-12-22T11:43:22;7.07;;;1.88;;
74632;SDS011;63139;52.018;8.552;2023-12-22T11:45:50;10.32;;;1.52;;
74632;SDS011;63139;52.018;8.552;2023-12-22T11:48:18;7.15;;;1.60;;
74632;SDS011;63139;52.018;8.552;2023-12-22T11:50:47;4.25;;;1.10;;
74632;SDS011;63139;52.018;8.552;2023-12-22T11:53:19;4.88;;;1.40;;
74632;SDS011;63139;52.018;8.552;2023-12-22T11:56:00;6.78;;;1.70;;
74632;SDS011;63139;52.018;8.552;2023-12-22T11:58:35;7.20;;;1.10;;
74632;SDS011;63139;52.018;8.552;2023-12-22T12:01:05;4.90;;;1.70;;
74632;SDS011;63139;52.018;8.552;2023-12-22T12:03:37;7.40;;;1.30;;
74632;SDS011;63139;52.018;8.552;2023-12-22T12:06:11;7.68;;;1.30;;
74632;SDS011;63139;52.018;8.552;2023-12-22T12:08:41;5.43;;;1.10;;
74632;SDS011;63139;52.018;8.552;2023-12-22T12:11:09;3.97;;;1.65;;
74632;SDS011;63139;52.018;8.552;2023-12-22T12:13:41;4.85;;;1.00;;
74632;SDS011;63139;52.018;8.552;2023-12-22T12:16:11;4.72;;;1.08;;
74632;SDS011;63139;52.018;8.552;2023-12-22T12:18:40;3.85;;;1.10;;
74632;SDS011;63139;52.018;8.552;2023-12-22T12:21:09;4.65;;;1.17;;
74632;SDS011;63139;52.018;8.552;2023-12-22T12:23:38;2.80;;;1.00;;
74632;SDS011;63139;52.018;8.552;2023-12-22T12:26:08;4.88;;;1.58;;
74632;SDS011;63139;52.018;8.552;2023-12-22T12:28:36;7.53;;;1.25;;
74632;SDS011;63139;52.018;8.552;2023-12-22T12:31:12;4.55;;;1.30;;
74632;SDS011;63139;52.018;8.552;2023-12-22T12:33:39;3.22;;;1.10;;
74632;SDS011;63139;52.018;8.552;2023-12-22T12:36:08;2.30;;;0.95;;
74632;SDS011;63139;52.018;8.552;2023-12-22T12:38:42;1.83;;;0.90;;
74632;SDS011;63139;52.018;8.552;2023-12-22T12:41:13;4.05;;;0.90;;
74632;SDS011;63139;52.018;8.552;2023-12-22T12:43:44;3.10;;;0.80;;
74632;SDS011;63139;52.018;8.552;2023-12-22T12:46:12;2.50;;;1.25;;
74632;SDS011;63139;52.018;8.552;2023-12-22T12:48:41;3.92;;;1.10;;
74632;SDS011;63139;52.018;8.552;2023-12-22T12:51:09;2.88;;;0.90;;
74632;SDS011;63139;52.018;8.552;2023-12-22T12:53:36;2.53;;;1.27;;
74632;SDS011;63139;52.018;8.552;2023-12-22T12:56:05;4.22;;;1.10;;
74632;SDS011;63139;52.018;8.552;2023-12-22T12:58:33;3.45;;;1.00;;
74632;SDS011;63139;52.018;8.552;2023-12-22T13:01:06;2.95;;;1.00;;
74632;SDS011;63139;52.018;8.552;2023-12-22T13:03:53;1.20;;;0.80;;
74632;SDS011;63139;52.018;8.552;2023-12-22T13:06:21;1.30;;;0.75;;
74632;SDS011;63139;52.018;8.552;2023-12-22T13:08:50;4.85;;;0.98;;
74632;SDS011;63139;52.018;8.552;2023-12-22T13:11:20;2.00;;;0.60;;
74632;SDS011;63139;52.018;8.552;2023-12-22T13:13:48;2.55;;;0.80;;
74632;SDS011;63139;52.018;8.552;2023-12-22T13:16:19;1.60;;;0.80;;
74632;SDS011;63139;52.018;8.552;2023-12-22T13:18:48;2.33;;;0.90;;
74632;SDS011;63139;52.018;8.552;2023-12-22T13:21:16;2.15;;;0.80;;
74632;SDS011;63139;52.018;8.552;2023-12-22T13:23:44;3.17;;;0.90;;
74632;SDS011;63139;52.018;8.552;2023-12-22T13:26:18;2.88;;;0.80;;
74632;SDS011;63139;52.018;8.552;2023-12-22T13:28:46;1.42;;;0.90;;
74632;SDS011;63139;52.018;8.552;2023-12-22T13:31:14;3.30;;;0.75;;
74632;SDS011;63139;52.018;8.552;2023-12-22T13:33:46;2.78;;;0.80;;
74632;SDS011;63139;52.018;8.552;2023-12-22T13:36:13;1.55;;;0.75;;
74632;SDS011;63139;52.018;8.552;2023-12-22T13:38:45;2.75;;;0.80;;
74632;SDS011;63139;52.018;8.552;2023-12-22T13:41:13;2.67;;;0.90;;
74632;SDS011;63139;52.018;8.552;2023-12-22T13:43:42;1.88;;;0.80;;
74632;SDS011;63139;52.018;8.552;2023-12-22T13:46:11;1.00;;;0.60;;
74632;SDS011;63139;52.018;8.552;2023-12-22T13:48:39;1.92;;;0.60;;
74632;SDS011;63139;52.018;8.552;2023-12-22T13:51:08;2.90;;;0.98;;
74632;SDS011;63139;52.018;8.552;2023-12-22T13:53:46;1.77;;;0.90;;
74632;SDS011;63139;52.018;8.552;2023-12-22T13:56:14;1.25;;;0.60;;
74632;SDS011;63139;52.018;8.552;2023-12-22T13:58:46;2.28;;;0.90;;
74632;SDS011;63139;52.018;8.552;2023-12-22T14:01:14;1.85;;;0.70;;
74632;SDS011;63139;52.018;8.552;2023-12-22T14:03:43;2.00;;;0.70;;
74632;SDS011;63139;52.018;8.552;2023-12-22T14:06:13;0.60;;;0.60;;
74632;SDS011;63139;52.018;8.552;2023-12-22T14:08:41;0.85;;;0.50;;
74632;SDS011;63139;52.018;8.552;2023-12-22T14:11:09;2.85;;;0.80;;
74632;SDS011;63139;52.018;8.552;2023-12-22T14:13:38;2.00;;;0.70;;
74632;SDS011;63139;52.018;8.552;2023-12-22T14:16:07;1.17;;;0.60;;
74632;SDS011;63139;52.018;8.552;2023-12-22T14:18:35;2.40;;;0.75;;
74632;SDS011;63139;52.018;8.552;2023-12-22T14:21:03;2.13;;;0.75;;
74632;SDS011;63139;52.018;8.552;2023-12-22T14:23:33;1.58;;;0.60;;
74632;SDS011;63139;52.018;8.552;2023-12-22T14:26:00;0.85;;;0.70;;
74632;SDS011;63139;52.018;8.552;2023-12-22T14:28:28;0.98;;;0.60;;
74632;SDS011;63139;52.018;8.552;2023-12-22T14:30:56;1.60;;;0.70;;
74632;SDS011;63139;52.018;8.552;2023-12-22T14:33:24;1.38;;;0.80;;
74632;SDS011;63139;52.018;8.552;2023-12-22T14:35:52;2.83;;;1.02;;
74632;SDS011;63139;52.018;8.552;2023-12-22T14:38:20;0.70;;;0.55;;
74632;SDS011;63139;52.018;8.552;2023-12-22T14:40:49;1.95;;;0.52;;
74632;SDS011;63139;52.018;8.552;2023-12-22T14:43:17;1.42;;;0.80;;
74632;SDS011;63139;52.018;8.552;2023-12-22T14:45:45;1.50;;;0.70;;
74632;SDS011;63139;52.018;8.552;2023-12-22T14:48:13;3.13;;;1.10;;
74632;SDS011;63139;52.018;8.552;2023-12-22T14:50:41;2.28;;;0.70;;